Time;durP1;ratioP1;P1;durP2;ratioP2;P2;SDS_P1;SDS_P2;PMS_P1;PMS_P2;Temp;Humidity;BMP_temperature;BMP_pressure;BME280_temperature;BME280_humidity;BME280_pressure;Samples;Min_cycle;Max_cycle;Signal;HPM_P1;HPM_P2
2023/01/01 00:01:19;;;;;;;22.88;19.92;;;18.30;58.10;;;;;;5055851;28;20205;-61
2023/01/01 00:03:51;;;;;;;22.17;19.83;;;18.30;58.10;;;;;;5065842;28;20606;-60
2023/01/01 00:06:17;;;;;;;21.55;19.35;;;18.30;58.10;;;;;;5075851;28;20257;-60
2023/01/01 00:08:42;;;;;;;22.55;20.25;;;18.30;58.10;;;;;;5075534;28;20351;-60
2023/01/01 00:11:08;;;;;;;21.50;19.27;;;18.30;58.00;;;;;;5075380;28;20179;-60
2023/01/01 00:13:34;;;;;;;22.42;19.90;;;18.30;57.90;;;;;;5075498;28;20624;-60
2023/01/01 00:16:10;;;;;;;23.02;20.40;;;18.20;57.90;;;;;;5075670;28;20185;-61
2023/01/01 00:18:36;;;;;;;23.02;20.50;;;18.20;57.80;;;;;;5074616;28;20257;-61
2023/01/01 00:21:03;;;;;;;22.13;19.83;;;18.20;57.80;;;;;;5075527;28;20639;-61
2023/01/01 00:23:30;;;;;;;21.75;19.33;;;18.20;57.80;;;;;;5073049;28;20293;-61
2023/01/01 00:25:55;;;;;;;21.75;19.45;;;18.20;57.80;;;;;;5054940;28;20206;-60
2023/01/01 00:28:21;;;;;;;23.85;20.80;;;18.20;57.80;;;;;;5054901;28;20564;-61
2023/01/01 00:30:46;;;;;;;22.23;19.60;;;18.20;57.80;;;;;;5054988;28;20179;-60
2023/01/01 00:33:12;;;;;;;20.83;18.80;;;18.20;57.80;;;;;;5055014;28;20179;-61
2023/01/01 00:35:37;;;;;;;21.30;19.10;;;18.20;57.80;;;;;;5055015;28;20179;-61
2023/01/01 00:38:03;;;;;;;21.00;18.90;;;18.20;57.70;;;;;;5055350;28;20563;-61
2023/01/01 00:40:28;;;;;;;20.55;18.55;;;18.20;57.80;;;;;;5054539;28;20602;-62
2023/01/01 00:42:54;;;;;;;21.55;19.13;;;18.20;57.70;;;;;;5055000;28;20178;-61
2023/01/01 00:45:20;;;;;;;21.38;18.33;;;18.20;57.70;;;;;;5055054;28;20182;-61
2023/01/01 00:47:45;;;;;;;20.92;18.70;;;18.20;57.60;;;;;;5054217;28;20210;-61
2023/01/01 00:50:11;;;;;;;22.17;19.08;;;18.20;57.60;;;;;;5054849;28;20637;-60
2023/01/01 00:52:36;;;;;;;22.55;19.25;;;18.10;57.60;;;;;;5054599;28;20174;-60
2023/01/01 00:55:02;;;;;;;23.30;18.67;;;18.10;57.60;;;;;;5054217;28;20183;-61
2023/01/01 00:57:28;;;;;;;22.02;18.92;;;18.20;57.60;;;;;;5055168;28;20171;-61
2023/01/01 00:59:53;;;;;;;22.17;18.98;;;18.10;57.50;;;;;;5053936;28;20209;-61
2023/01/01 01:02:19;;;;;;;23.08;18.85;;;18.10;57.50;;;;;;5054587;28;20191;-61
2023/01/01 01:04:44;;;;;;;19.27;17.27;;;18.10;57.60;;;;;;5054455;28;20194;-60
2023/01/01 01:07:10;;;;;;;21.40;17.88;;;18.10;58.00;;;;;;5054381;28;20560;-61
2023/01/01 01:09:35;;;;;;;20.38;17.77;;;18.10;57.50;;;;;;5054262;28;20612;-61
2023/01/01 01:12:01;;;;;;;22.25;18.15;;;18.10;57.60;;;;;;5054823;28;20175;-61
2023/01/01 01:14:26;;;;;;;19.42;16.95;;;18.10;57.50;;;;;;5054088;28;20175;-61
2023/01/01 01:16:52;;;;;;;22.05;17.48;;;18.10;57.50;;;;;;5054022;28;20218;-61
2023/01/01 01:19:18;;;;;;;20.08;17.77;;;18.10;57.50;;;;;;5054681;28;20577;-62
2023/01/01 01:21:43;;;;;;;21.38;16.77;;;18.10;57.50;;;;;;5053766;28;20175;-61
2023/01/01 01:24:09;;;;;;;18.70;16.70;;;18.10;57.50;;;;;;5054364;28;20625;-61
2023/01/01 01:26:35;;;;;;;18.52;15.57;;;18.10;57.50;;;;;;5054282;28;20210;-60
2023/01/01 01:29:01;;;;;;;20.17;16.70;;;18.10;57.50;;;;;;5053795;28;20306;-61
2023/01/01 01:31:28;;;;;;;20.73;16.17;;;18.10;57.50;;;;;;5054265;28;20182;-61
2023/01/01 01:33:54;;;;;;;18.88;16.38;;;18.10;58.10;;;;;;5054059;28;20171;-60
2023/01/01 01:36:20;;;;;;;17.17;14.90;;;18.10;57.50;;;;;;5053879;28;20328;-61
2023/01/01 01:38:45;;;;;;;17.52;15.40;;;18.00;57.30;;;;;;5052997;28;20171;-61
2023/01/01 01:41:12;;;;;;;17.15;15.30;;;18.00;57.30;;;;;;5054120;28;20719;-61
2023/01/01 01:43:37;;;;;;;17.75;14.30;;;18.10;57.40;;;;;;5051765;28;20205;-61
2023/01/01 01:46:16;;;;;;;17.30;14.48;;;18.10;57.50;;;;;;5054180;28;20633;-62
2023/01/01 01:48:47;;;;;;;16.83;14.48;;;18.00;57.40;;;;;;5053673;28;20287;-60
2023/01/01 01:51:14;;;;;;;18.23;14.82;;;18.00;57.40;;;;;;5052073;28;20278;-60
2023/01/01 01:53:46;;;;;;;16.80;14.05;;;18.00;57.30;;;;;;5053521;28;20185;-60
2023/01/01 01:56:13;;;;;;;18.25;13.85;;;18.00;57.30;;;;;;5052014;28;20186;-61
2023/01/01 01:58:39;;;;;;;14.05;12.60;;;18.00;57.40;;;;;;5053250;28;20534;-61
2023/01/01 02:01:05;;;;;;;16.38;13.80;;;18.00;57.30;;;;;;5053709;28;20171;-61
2023/01/01 02:03:39;;;;;;;15.80;14.05;;;18.00;57.30;;;;;;5053199;28;20186;-61
2023/01/01 02:06:05;;;;;;;15.82;13.27;;;18.00;57.30;;;;;;5052251;28;20174;-61
2023/01/01 02:08:31;;;;;;;15.25;12.90;;;18.00;57.30;;;;;;5053416;28;20207;-60
2023/01/01 02:10:56;;;;;;;20.50;14.02;;;18.00;57.30;;;;;;5051937;28;20182;-61
2023/01/01 02:13:22;;;;;;;15.95;12.55;;;18.00;57.30;;;;;;5053473;28;20552;-61
2023/01/01 02:16:00;;;;;;;13.90;12.00;;;18.00;57.30;;;;;;5053139;28;20640;-61
2023/01/01 02:18:40;;;;;;;13.20;11.80;;;18.00;57.30;;;;;;5051660;28;20323;-61
2023/01/01 02:21:10;;;;;;;16.38;11.98;;;18.00;57.30;;;;;;5053303;28;20190;-61
2023/01/01 02:23:38;;;;;;;15.52;12.52;;;18.00;57.20;;;;;;5052004;28;20179;-61
2023/01/01 02:26:37;;;;;;;13.50;12.10;;;18.00;57.20;;;;;;5052649;28;20171;-61
2023/01/01 02:29:24;;;;;;;15.02;11.73;;;18.00;57.30;;;;;;5053820;28;20199;-61
2023/01/01 02:31:54;;;;;;;13.55;11.75;;;18.00;57.20;;;;;;5052224;28;20625;-60
2023/01/01 02:34:20;;;;;;;14.02;11.68;;;17.90;57.10;;;;;;5052004;28;20182;-61
2023/01/01 02:36:49;;;;;;;13.27;11.38;;;18.00;57.20;;;;;;5051877;28;20197;-61
2023/01/01 02:39:14;;;;;;;12.48;10.90;;;18.00;57.20;;;;;;5051577;28;20175;-63
2023/01/01 02:41:42;;;;;;;12.95;10.40;;;18.00;57.10;;;;;;5051605;28;20163;-62
2023/01/01 02:44:07;;;;;;;12.55;11.25;;;17.90;57.10;;;;;;5052019;28;20209;-61
2023/01/01 02:46:34;;;;;;;11.73;10.52;;;17.90;57.10;;;;;;5052411;28;20254;-61
2023/01/01 02:48:59;;;;;;;10.75;9.68;;;17.90;57.10;;;;;;5052739;28;20246;-60
2023/01/01 02:51:47;;;;;;;12.93;10.43;;;17.90;57.10;;;;;;5052941;28;20202;-60
2023/01/01 02:54:19;;;;;;;11.98;9.73;;;17.90;57.00;;;;;;5051067;28;20193;-61
2023/01/01 02:57:05;;;;;;;12.68;10.15;;;17.90;57.10;;;;;;5052757;28;20186;-60
2023/01/01 03:02:40;;;;;;;12.50;10.00;;;17.90;57.00;;;;;;5052604;28;20216;-61
2023/01/01 03:05:08;;;;;;;12.00;10.25;;;17.90;57.00;;;;;;5052845;28;20182;-61
2023/01/01 03:07:48;;;;;;;11.30;9.77;;;17.90;57.00;;;;;;5051887;28;20688;-60
2023/01/01 03:10:39;;;;;;;10.45;8.77;;;17.90;56.90;;;;;;5052853;28;20202;-60
2023/01/01 03:13:16;;;;;;;10.52;8.95;;;17.90;56.90;;;;;;5051505;28;20175;-61
2023/01/01 03:15:58;;;;;;;11.05;9.57;;;17.90;56.90;;;;;;5050407;28;20536;-61
2023/01/01 03:18:28;;;;;;;10.75;9.07;;;17.90;56.90;;;;;;5052524;28;20231;-61
2023/01/01 03:20:54;;;;;;;10.38;8.75;;;17.90;57.00;;;;;;5050637;28;20175;-61
2023/01/01 03:23:25;;;;;;;12.02;9.48;;;17.80;57.50;;;;;;5052357;28;20232;-61
2023/01/01 03:25:52;;;;;;;10.65;8.70;;;17.80;56.90;;;;;;5051161;28;20182;-61
2023/01/01 03:28:27;;;;;;;9.35;8.35;;;17.90;56.90;;;;;;5050952;28;20249;-61
2023/01/01 03:30:52;;;;;;;9.00;8.20;;;17.80;56.90;;;;;;5051022;28;20224;-61
2023/01/01 03:33:29;;;;;;;10.00;7.90;;;17.80;56.90;;;;;;5051371;28;20519;-61
2023/01/01 03:36:06;;;;;;;8.32;7.45;;;17.80;56.80;;;;;;5050225;28;20206;-61
2023/01/01 03:38:43;;;;;;;10.57;8.10;;;17.80;56.80;;;;;;5052371;28;20183;-61
2023/01/01 03:41:20;;;;;;;8.73;7.63;;;17.80;56.90;;;;;;5052389;28;20711;-62
2023/01/01 03:43:49;;;;;;;8.90;7.97;;;17.80;56.90;;;;;;5051542;28;20179;-62
2023/01/01 03:46:15;;;;;;;9.85;7.95;;;17.80;56.90;;;;;;5051230;28;20213;-61
2023/01/01 03:48:56;;;;;;;8.77;7.88;;;17.80;56.80;;;;;;5050159;28;20211;-61
2023/01/01 03:51:34;;;;;;;9.25;7.65;;;17.80;56.90;;;;;;5051041;28;20640;-61
2023/01/01 03:54:01;;;;;;;8.93;7.20;;;17.80;56.80;;;;;;5052367;28;20637;-61
2023/01/01 03:56:39;;;;;;;7.47;6.78;;;17.80;56.80;;;;;;5050549;28;20175;-61
2023/01/01 03:59:27;;;;;;;9.27;7.07;;;17.80;56.90;;;;;;5050921;28;20178;-61
2023/01/01 04:01:55;;;;;;;8.85;7.72;;;17.80;56.80;;;;;;5051599;28;20167;-61
2023/01/01 04:04:21;;;;;;;9.23;7.70;;;17.80;56.80;;;;;;5054189;28;20178;-61
2023/01/01 04:06:46;;;;;;;8.57;7.28;;;17.80;56.80;;;;;;5055605;28;20213;-61
2023/01/01 04:09:15;;;;;;;8.35;7.38;;;17.80;56.80;;;;;;5054588;28;20248;-61
2023/01/01 04:14:36;;;;;;;7.88;6.85;;;17.80;56.80;;;;;;5054877;28;20186;-61
2023/01/01 04:17:03;;;;;;;8.20;6.90;;;17.80;56.80;;;;;;5055092;28;20246;-62
2023/01/01 04:19:29;;;;;;;7.35;6.57;;;17.70;56.80;;;;;;5055457;28;20179;-61
2023/01/01 04:21:54;;;;;;;8.15;7.03;;;17.80;56.80;;;;;;5055123;28;20186;-61
2023/01/01 04:24:20;;;;;;;8.65;6.97;;;17.80;56.70;;;;;;5055257;28;20179;-61
2023/01/01 04:26:45;;;;;;;9.32;7.22;;;17.80;56.80;;;;;;5055257;28;20182;-61
2023/01/01 04:29:11;;;;;;;7.45;6.53;;;17.70;56.70;;;;;;5055585;28;20353;-61
2023/01/01 04:31:36;;;;;;;8.77;6.75;;;17.80;56.80;;;;;;5054767;28;20274;-61
2023/01/01 04:34:02;;;;;;;8.68;6.32;;;17.80;56.70;;;;;;5055245;28;20266;-61
2023/01/01 04:36:28;;;;;;;6.95;6.25;;;17.80;57.30;;;;;;5055138;28;20222;-62
2023/01/01 04:38:53;;;;;;;7.45;6.75;;;17.70;56.70;;;;;;5054457;28;20190;-62
2023/01/01 04:41:19;;;;;;;7.32;6.47;;;17.70;56.70;;;;;;5055228;28;20569;-62
2023/01/01 04:43:50;;;;;;;6.95;6.22;;;17.70;56.70;;;;;;5055198;28;20250;-62
2023/01/01 04:46:17;;;;;;;7.22;5.80;;;17.70;56.70;;;;;;5054592;28;20175;-61
2023/01/01 04:48:42;;;;;;;10.38;6.45;;;17.70;57.30;;;;;;5055050;28;20203;-61
2023/01/01 04:51:09;;;;;;;7.97;6.22;;;17.80;56.70;;;;;;5055084;28;20185;-61
2023/01/01 04:53:34;;;;;;;6.50;5.90;;;17.70;56.70;;;;;;5052768;28;20589;-60
2023/01/01 04:56:08;;;;;;;7.45;5.63;;;17.70;56.70;;;;;;5055169;28;20221;-61
2023/01/01 04:58:34;;;;;;;7.57;6.07;;;17.70;56.70;;;;;;5054913;28;20206;-61
2023/01/01 05:00:59;;;;;;;5.78;5.28;;;17.70;56.70;;;;;;5054270;28;20167;-61
2023/01/01 05:03:25;;;;;;;5.85;5.30;;;17.70;56.70;;;;;;5054968;28;20186;-61
2023/01/01 05:06:07;;;;;;;6.90;5.53;;;17.70;56.70;;;;;;5054323;28;20254;-61
2023/01/01 05:08:34;;;;;;;7.70;5.47;;;17.70;56.70;;;;;;5054340;28;20218;-61
2023/01/01 05:11:13;;;;;;;6.00;5.40;;;17.70;56.70;;;;;;5054668;28;20618;-60
2023/01/01 05:13:41;;;;;;;7.82;5.03;;;17.70;56.70;;;;;;5052851;28;20633;-61
2023/01/01 05:16:07;;;;;;;5.75;5.25;;;17.70;56.70;;;;;;5054276;28;20232;-61
2023/01/01 05:18:33;;;;;;;6.78;5.93;;;17.70;56.70;;;;;;5054112;28;20758;-61
2023/01/01 05:21:04;;;;;;;6.20;5.30;;;17.70;56.70;;;;;;5054177;28;20190;-61
2023/01/01 05:23:29;;;;;;;5.28;4.70;;;17.70;56.70;;;;;;5054200;28;20650;-62
2023/01/01 05:25:55;;;;;;;7.05;5.15;;;17.70;56.70;;;;;;5054144;28;20179;-61
2023/01/01 05:28:22;;;;;;;6.25;4.95;;;17.70;56.70;;;;;;5053557;28;20225;-61
2023/01/01 05:30:48;;;;;;;6.15;4.70;;;17.70;56.70;;;;;;5053981;28;20258;-61
2023/01/01 05:33:13;;;;;;;8.23;5.40;;;17.70;56.70;;;;;;5054859;28;20175;-61
2023/01/01 05:35:39;;;;;;;6.15;5.55;;;17.70;56.70;;;;;;5053287;28;20224;-61
2023/01/01 05:38:04;;;;;;;7.30;5.53;;;17.70;56.80;;;;;;5054367;28;20170;-61
2023/01/01 05:40:30;;;;;;;5.15;4.65;;;17.70;56.70;;;;;;5054149;28;20171;-62
2023/01/01 05:42:56;;;;;;;5.60;4.63;;;17.70;56.80;;;;;;5053371;28;20194;-62
2023/01/01 05:45:21;;;;;;;5.25;4.75;;;17.70;56.80;;;;;;5053947;28;20689;-62
2023/01/01 05:47:47;;;;;;;5.53;4.90;;;17.70;56.70;;;;;;5053814;28;20526;-61
2023/01/01 05:50:12;;;;;;;6.25;4.72;;;17.60;56.70;;;;;;5053488;28;20183;-61
2023/01/01 05:52:38;;;;;;;5.50;4.90;;;17.60;56.70;;;;;;5053777;28;20183;-60
2023/01/01 05:55:03;;;;;;;6.93;4.68;;;17.70;56.70;;;;;;5054297;28;20266;-61
2023/01/01 05:57:29;;;;;;;5.95;4.80;;;17.60;56.70;;;;;;5053125;28;20255;-61
2023/01/01 05:59:54;;;;;;;5.32;4.07;;;17.60;56.70;;;;;;5053469;28;20649;-61
2023/01/01 06:02:20;;;;;;;5.55;4.57;;;17.60;56.60;;;;;;5053127;28;20709;-61
2023/01/01 06:04:45;;;;;;;5.90;4.05;;;17.60;56.60;;;;;;5053419;28;20205;-61
2023/01/01 06:07:11;;;;;;;5.35;4.28;;;17.60;56.60;;;;;;5053711;28;20175;-61
2023/01/01 06:09:36;;;;;;;4.60;3.97;;;17.60;56.60;;;;;;5052742;28;20214;-61
2023/01/01 06:12:02;;;;;;;5.65;4.20;;;17.60;56.60;;;;;;5053295;28;20198;-61
2023/01/01 06:14:28;;;;;;;5.00;4.32;;;17.60;56.60;;;;;;5053384;28;20186;-61
2023/01/01 06:16:53;;;;;;;4.72;4.28;;;17.60;56.60;;;;;;5052688;28;20225;-60
2023/01/01 06:19:19;;;;;;;5.53;4.22;;;17.60;56.60;;;;;;5053269;28;20179;-61
2023/01/01 06:21:44;;;;;;;5.53;3.85;;;17.60;56.60;;;;;;5053211;28;20171;-62
2023/01/01 06:24:10;;;;;;;5.55;4.10;;;17.60;56.60;;;;;;5052957;28;20175;-61
2023/01/01 06:26:35;;;;;;;5.45;4.07;;;17.60;56.50;;;;;;5052696;28;20182;-61
2023/01/01 06:29:01;;;;;;;5.22;3.95;;;17.60;56.60;;;;;;5053112;28;20215;-61
2023/01/01 06:31:27;;;;;;;5.57;3.80;;;17.60;56.60;;;;;;5052755;28;20197;-61
2023/01/01 06:33:53;;;;;;;5.45;3.88;;;17.60;56.60;;;;;;5053052;28;20614;-61
2023/01/01 06:36:20;;;;;;;4.00;3.60;;;17.60;56.50;;;;;;5053460;28;20183;-62
2023/01/01 06:38:47;;;;;;;5.30;3.65;;;17.60;56.60;;;;;;5052081;28;20640;-61
2023/01/01 06:41:14;;;;;;;5.63;3.70;;;17.60;56.60;;;;;;5053005;28;20637;-61
2023/01/01 06:43:39;;;;;;;4.18;3.42;;;17.60;56.50;;;;;;5052677;28;20179;-61
2023/01/01 06:46:25;;;;;;;4.43;4.03;;;17.50;56.50;;;;;;5052475;28;20178;-61
2023/01/01 06:49:02;;;;;;;4.82;3.72;;;17.60;56.60;;;;;;5052761;28;20218;-61
2023/01/01 06:51:30;;;;;;;5.20;3.58;;;17.60;56.60;;;;;;5053086;28;20170;-61
2023/01/01 06:54:00;;;;;;;5.18;3.75;;;17.60;56.50;;;;;;5052212;28;20397;-61
2023/01/01 06:56:26;;;;;;;3.83;3.53;;;17.50;56.50;;;;;;5053107;28;20228;-61
2023/01/01 06:58:51;;;;;;;5.13;3.40;;;17.50;57.10;;;;;;5052202;28;20388;-61
2023/01/01 07:01:21;;;;;;;4.97;3.67;;;17.50;56.50;;;;;;5052669;28;20629;-61
2023/01/01 07:03:51;;;;;;;4.05;3.30;;;17.50;56.50;;;;;;5052643;28;20639;-61
2023/01/01 07:06:17;;;;;;;4.18;3.55;;;17.60;56.50;;;;;;5052193;28;20696;-61
2023/01/01 07:08:42;;;;;;;5.90;3.45;;;17.50;56.50;;;;;;5052185;28;20214;-60
2023/01/01 07:11:08;;;;;;;5.15;3.30;;;17.50;56.50;;;;;;5052677;28;20170;-61
2023/01/01 07:13:33;;;;;;;3.70;3.28;;;17.50;56.50;;;;;;5051831;28;20183;-61
2023/01/01 07:15:59;;;;;;;5.32;3.08;;;17.50;56.50;;;;;;5052710;28;20176;-61
2023/01/01 07:18:25;;;;;;;4.00;3.08;;;17.50;56.50;;;;;;5052438;28;20280;-61
2023/01/01 07:20:54;;;;;;;4.47;3.00;;;17.50;56.40;;;;;;5051733;28;20702;-61
2023/01/01 07:23:19;;;;;;;5.82;3.53;;;17.50;56.40;;;;;;5051394;28;20179;-61
2023/01/01 07:25:47;;;;;;;4.57;3.30;;;17.50;56.40;;;;;;5052219;28;20182;-61
2023/01/01 07:28:12;;;;;;;4.22;2.97;;;17.60;56.40;;;;;;5050559;28;20560;-61
2023/01/01 07:30:38;;;;;;;5.43;2.80;;;17.50;56.40;;;;;;5052359;28;20186;-61
2023/01/01 07:33:03;;;;;;;3.50;2.80;;;17.50;56.50;;;;;;5052429;28;20532;-61
2023/01/01 07:35:29;;;;;;;3.58;3.05;;;17.50;56.50;;;;;;5051734;28;20630;-61
2023/01/01 07:37:54;;;;;;;4.07;2.80;;;17.50;56.40;;;;;;5054574;28;20262;-61
2023/01/01 07:40:20;;;;;;;3.85;2.97;;;17.50;56.40;;;;;;5056563;28;20259;-61
2023/01/01 07:42:45;;;;;;;3.33;2.95;;;17.50;56.30;;;;;;5055195;28;20258;-62
2023/01/01 07:45:12;;;;;;;4.10;2.70;;;17.50;56.30;;;;;;5056498;28;20258;-61
2023/01/01 07:47:37;;;;;;;3.92;2.67;;;17.50;56.40;;;;;;5055875;28;20224;-61
2023/01/01 07:50:03;;;;;;;3.88;2.92;;;17.40;56.40;;;;;;5055387;28;20301;-61
2023/01/01 07:52:29;;;;;;;3.95;2.45;;;17.40;56.30;;;;;;5056038;28;20260;-61
2023/01/01 07:54:54;;;;;;;3.15;2.85;;;17.40;56.40;;;;;;5055613;28;20171;-61
2023/01/01 07:57:20;;;;;;;3.58;2.67;;;17.40;56.30;;;;;;5055937;28;20222;-61
2023/01/01 07:59:45;;;;;;;2.70;2.50;;;17.40;56.30;;;;;;5055927;28;20628;-61
2023/01/01 08:02:11;;;;;;;3.60;2.28;;;17.40;56.20;;;;;;5055476;28;20686;-61
2023/01/01 08:04:37;;;;;;;3.67;2.70;;;17.40;56.30;;;;;;5055363;28;20627;-61
2023/01/01 08:07:03;;;;;;;3.97;2.22;;;17.40;56.30;;;;;;5055722;28;20252;-60
2023/01/01 08:09:28;;;;;;;3.55;2.40;;;17.40;56.30;;;;;;5055426;28;20217;-60
2023/01/01 08:11:57;;;;;;;3.50;2.60;;;17.40;56.30;;;;;;5055555;28;20622;-60
2023/01/01 08:14:23;;;;;;;3.63;2.80;;;17.40;56.30;;;;;;5056001;28;20182;-61
2023/01/01 08:16:48;;;;;;;3.50;2.50;;;17.40;56.30;;;;;;5054729;28;20546;-60
2023/01/01 08:19:14;;;;;;;3.40;2.33;;;17.40;56.30;;;;;;5055775;28;20206;-62
2023/01/01 08:21:39;;;;;;;3.38;2.35;;;17.40;56.40;;;;;;5055166;28;20167;-61
2023/01/01 08:24:05;;;;;;;2.28;2.08;;;17.40;56.40;;;;;;5055018;28;20297;-59
2023/01/01 08:26:32;;;;;;;3.08;2.75;;;17.40;56.40;;;;;;5055313;28;20175;-59
2023/01/01 08:28:57;;;;;;;5.63;2.50;;;17.40;56.30;;;;;;5055351;28;20218;-59
2023/01/01 08:31:23;;;;;;;2.75;2.25;;;17.40;56.30;;;;;;5054763;28;20172;-59
2023/01/01 08:33:49;;;;;;;2.70;2.20;;;17.40;56.40;;;;;;5055140;28;20220;-59
2023/01/01 08:36:15;;;;;;;3.30;2.30;;;17.40;56.40;;;;;;5055328;28;20228;-60
2023/01/01 08:38:41;;;;;;;3.95;2.35;;;17.40;56.40;;;;;;5053261;28;20225;-60
2023/01/01 08:41:06;;;;;;;2.50;2.30;;;17.30;56.30;;;;;;5055361;28;20171;-60
2023/01/01 08:43:32;;;;;;;2.78;2.05;;;17.40;56.40;;;;;;5054996;28;20587;-60
2023/01/01 08:45:57;;;;;;;3.15;2.58;;;17.30;56.30;;;;;;5054503;28;20598;-60
2023/01/01 08:48:23;;;;;;;4.45;2.17;;;17.40;56.40;;;;;;5054803;28;20613;-60
2023/01/01 08:50:53;;;;;;;3.17;2.10;;;17.30;56.90;;;;;;5054682;28;20199;-59
2023/01/01 08:53:18;;;;;;;1.98;1.80;;;17.40;56.40;;;;;;5054551;28;20303;-59
2023/01/01 08:55:44;;;;;;;4.07;2.17;;;17.40;56.40;;;;;;5054895;28;20175;-59
2023/01/01 08:58:09;;;;;;;7.43;3.08;;;17.30;56.30;;;;;;5054434;28;20197;-60
2023/01/01 09:00:35;;;;;;;2.72;2.08;;;17.30;56.30;;;;;;5054508;28;20561;-59
2023/01/01 09:03:00;;;;;;;2.33;1.90;;;17.30;56.30;;;;;;5054833;28;20580;-59
2023/01/01 09:05:26;;;;;;;2.67;2.00;;;17.30;56.30;;;;;;5054239;28;20939;-63
2023/01/01 09:07:51;;;;;;;2.67;1.92;;;17.30;56.50;;;;;;5054118;28;20637;-62
2023/01/01 09:10:17;;;;;;;3.28;1.75;;;17.40;56.40;;;;;;5054665;28;20275;-63
2023/01/01 09:12:42;;;;;;;2.30;1.70;;;17.40;56.30;;;;;;5053693;28;20262;-64
2023/01/01 09:15:13;;;;;;;2.08;1.75;;;17.40;56.30;;;;;;5054701;28;20266;-64
2023/01/01 09:17:39;;;;;;;3.65;2.08;;;17.40;56.50;;;;;;5052841;28;20234;-63
2023/01/01 09:20:05;;;;;;;4.20;2.25;;;17.40;56.90;;;;;;5053603;28;20181;-63
2023/01/01 09:22:30;;;;;;;2.50;2.05;;;17.50;56.90;;;;;;5054799;28;20186;-64
2023/01/01 09:24:56;;;;;;;4.25;2.05;;;17.50;57.00;;;;;;5053178;28;20269;-61
2023/01/01 09:27:22;;;;;;;1.90;1.63;;;17.40;57.00;;;;;;5053607;28;20220;-62
2023/01/01 09:29:47;;;;;;;2.95;2.25;;;17.40;57.00;;;;;;5053975;28;20735;-63
2023/01/01 09:32:13;;;;;;;6.38;2.70;;;17.40;57.60;;;;;;5053801;28;20736;-63
2023/01/01 09:34:38;;;;;;;3.60;2.03;;;17.40;56.90;;;;;;5061774;28;20548;-63
2023/01/01 09:37:04;;;;;;;3.92;2.13;;;17.50;57.00;;;;;;5066646;28;20200;-63
2023/01/01 09:39:29;;;;;;;2.85;2.03;;;17.50;57.10;;;;;;5074260;28;20521;-63
2023/01/01 09:42:25;;;;;;;2.75;2.00;;;17.50;57.10;;;;;;5054954;28;20632;-63
2023/01/01 09:45:00;;;;;;;2.22;2.03;;;17.40;57.20;;;;;;5052663;28;20187;-63
2023/01/01 09:47:37;;;;;;;2.72;1.98;;;17.50;57.20;;;;;;5053464;28;20163;-63
2023/01/01 09:50:05;;;;;;;3.40;2.00;;;17.50;57.30;;;;;;5067706;28;20672;-63
2023/01/01 09:52:44;;;;;;;4.25;2.33;;;17.50;57.30;;;;;;5056018;28;20257;-63
2023/01/01 09:55:17;;;;;;;2.58;2.03;;;17.50;57.40;;;;;;5056465;28;20181;-63
2023/01/01 09:57:43;;;;;;;5.00;2.20;;;17.50;57.30;;;;;;5056504;28;20190;-63
2023/01/01 10:00:14;;;;;;;3.20;2.08;;;17.40;57.20;;;;;;5072218;28;20170;-63
2023/01/01 10:03:12;;;;;;;4.50;2.50;;;17.50;57.50;;;;;;5071313;28;20175;-64
2023/01/01 10:06:15;;;;;;;2.13;1.95;;;17.50;57.30;;;;;;5069951;28;20179;-63
2023/01/01 10:09:15;;;;;;;2.83;2.00;;;17.50;57.40;;;;;;5052889;28;20207;-63
2023/01/01 10:12:04;;;;;;;3.15;2.35;;;17.50;57.60;;;;;;5052313;28;20261;-63
2023/01/01 10:14:38;;;;;;;3.25;2.15;;;17.50;57.70;;;;;;5052473;28;20178;-64
2023/01/01 10:17:26;;;;;;;4.43;2.55;;;17.50;57.70;;;;;;5051519;28;20250;-64
2023/01/01 10:19:54;;;;;;;3.45;2.22;;;17.50;57.60;;;;;;5051666;28;20645;-63
2023/01/01 10:22:26;;;;;;;4.60;2.30;;;17.50;57.70;;;;;;5051922;28;20260;-64
2023/01/01 10:24:58;;;;;;;3.42;2.20;;;17.50;57.60;;;;;;5051118;28;20317;-64
2023/01/01 10:27:43;;;;;;;5.13;2.58;;;17.50;57.70;;;;;;5036232;28;20199;-63
2023/01/01 10:30:19;;;;;;;2.95;2.28;;;17.50;57.80;;;;;;5035094;28;20300;-64
2023/01/01 10:32:50;;;;;;;3.00;2.20;;;17.50;57.80;;;;;;5053003;28;20174;-63
2023/01/01 10:35:29;;;;;;;4.18;2.35;;;17.50;57.80;;;;;;5053307;28;20262;-64
2023/01/01 10:37:58;;;;;;;4.32;2.05;;;17.50;57.80;;;;;;5050995;28;20637;-63
2023/01/01 10:40:25;;;;;;;2.45;2.05;;;17.50;58.00;;;;;;5060598;28;20529;-63
2023/01/01 10:42:52;;;;;;;2.88;2.35;;;17.50;57.80;;;;;;5055083;28;20181;-63
2023/01/01 10:45:22;;;;;;;2.47;2.25;;;17.50;57.90;;;;;;5072250;28;20178;-63
2023/01/01 10:48:13;;;;;;;3.40;2.15;;;17.50;57.80;;;;;;5071769;28;20173;-63
2023/01/01 10:50:52;;;;;;;3.28;2.28;;;17.50;58.10;;;;;;5072210;28;20559;-63
2023/01/01 10:53:25;;;;;;;4.35;2.05;;;17.50;58.70;;;;;;5072688;28;20286;-63
2023/01/01 10:56:00;;;;;;;3.88;2.42;;;17.50;58.10;;;;;;5071340;28;20179;-63
2023/01/01 10:58:34;;;;;;;2.85;2.30;;;17.50;58.10;;;;;;5071264;28;20174;-63
2023/01/01 11:01:01;;;;;;;2.90;2.22;;;17.50;58.20;;;;;;5072993;28;20186;-63
2023/01/01 11:03:26;;;;;;;3.78;2.45;;;17.50;58.10;;;;;;5072734;28;20181;-63
2023/01/01 11:06:18;;;;;;;3.35;2.00;;;17.40;58.10;;;;;;5035758;28;20633;-63
2023/01/01 11:08:49;;;;;;;4.43;2.42;;;17.50;58.10;;;;;;5037311;28;20210;-62
2023/01/01 11:11:41;;;;;;;2.95;2.10;;;17.50;58.10;;;;;;5052792;28;20199;-63
2023/01/01 11:14:21;;;;;;;5.40;2.83;;;17.50;58.20;;;;;;5053165;28;20183;-64
2023/01/01 11:16:47;;;;;;;3.28;2.42;;;17.50;58.30;;;;;;5055468;28;20199;-64
2023/01/01 11:19:33;;;;;;;4.72;2.35;;;17.50;58.20;;;;;;5056339;28;20343;-64
2023/01/01 11:21:59;;;;;;;4.05;2.78;;;17.50;58.30;;;;;;5055458;28;20617;-65
2023/01/01 11:24:29;;;;;;;4.72;2.25;;;17.50;58.40;;;;;;5055727;28;20182;-65
2023/01/01 11:27:20;;;;;;;6.05;2.03;;;17.50;58.50;;;;;;5055605;28;20175;-65
2023/01/01 11:29:46;;;;;;;3.35;2.25;;;17.50;58.40;;;;;;5056356;28;20211;-65
2023/01/01 11:32:17;;;;;;;4.47;2.13;;;17.60;58.40;;;;;;5056661;28;20198;-66
2023/01/01 11:34:43;;;;;;;2.80;2.20;;;17.70;58.30;;;;;;5038130;28;20183;-66
2023/01/01 11:37:15;;;;;;;5.43;2.28;;;17.70;58.40;;;;;;5056599;28;20618;-66
2023/01/01 11:39:42;;;;;;;5.45;2.42;;;17.90;58.40;;;;;;5057543;28;20182;-67
2023/01/01 11:42:08;;;;;;;3.67;1.98;;;18.00;58.00;;;;;;5075811;28;20170;-66
2023/01/01 11:44:41;;;;;;;2.42;1.85;;;18.20;57.90;;;;;;5076141;28;20532;-66
2023/01/01 11:47:07;;;;;;;2.92;1.98;;;18.50;57.60;;;;;;5074469;28;20181;-63
2023/01/01 11:49:32;;;;;;;4.05;2.33;;;18.70;57.30;;;;;;5076215;28;20206;-64
2023/01/01 11:51:58;;;;;;;2.17;1.40;;;18.90;56.80;;;;;;5075727;28;20228;-64
2023/01/01 11:54:37;;;;;;;4.05;2.13;;;19.10;56.50;;;;;;5075165;28;20532;-66
2023/01/01 11:57:17;;;;;;;3.40;1.80;;;19.20;56.20;;;;;;5076173;28;20316;-68
2023/01/01 11:59:58;;;;;;;4.38;2.33;;;19.30;55.90;;;;;;5058606;28;20174;-66
2023/01/01 12:02:31;;;;;;;3.05;1.45;;;19.50;55.90;;;;;;5074291;28;20167;-66
2023/01/01 12:05:07;;;;;;;2.22;1.67;;;19.60;55.70;;;;;;5074717;28;20641;-65
2023/01/01 12:07:34;;;;;;;2.75;1.63;;;19.70;55.30;;;;;;5058716;28;20647;-65
2023/01/01 12:10:05;;;;;;;2.67;1.65;;;19.80;55.30;;;;;;5057334;28;20580;-65
2023/01/01 12:12:47;;;;;;;3.33;1.60;;;19.80;55.10;;;;;;5053592;28;20168;-66
2023/01/01 12:15:36;;;;;;;2.75;1.88;;;19.80;55.10;;;;;;5053876;28;20584;-66
2023/01/01 12:18:38;;;;;;;2.42;1.80;;;19.80;55.10;;;;;;5034982;28;20223;-66
2023/01/01 12:21:07;;;;;;;3.05;2.20;;;19.90;55.10;;;;;;5048844;28;20559;-66
2023/01/01 12:23:33;;;;;;;2.53;1.80;;;19.90;55.10;;;;;;5054376;28;20175;-69
2023/01/01 12:26:07;;;;;;;3.35;2.00;;;19.80;55.30;;;;;;5037946;28;20175;-66
2023/01/01 12:28:42;;;;;;;2.60;1.60;;;19.90;55.40;;;;;;5055206;28;20675;-66
2023/01/01 12:31:29;;;;;;;3.92;1.83;;;19.80;55.40;;;;;;5054621;28;20605;-65
2023/01/01 12:33:54;;;;;;;2.33;1.48;;;19.90;55.30;;;;;;5054294;28;20540;-65
2023/01/01 12:36:22;;;;;;;1.85;1.50;;;19.90;55.30;;;;;;5054497;28;20689;-65
2023/01/01 12:39:22;;;;;;;2.25;1.50;;;19.90;55.30;;;;;;5054026;28;20183;-65
2023/01/01 12:41:53;;;;;;;2.90;1.75;;;19.90;55.40;;;;;;5073938;28;20174;-65
2023/01/01 12:44:28;;;;;;;3.95;2.47;;;19.80;55.30;;;;;;5074595;28;20201;-65
2023/01/01 12:47:31;;;;;;;1.95;1.63;;;19.80;56.10;;;;;;5073445;28;20186;-64
2023/01/01 12:50:09;;;;;;;1.75;1.65;;;19.70;55.50;;;;;;5058743;28;20298;-64
2023/01/01 12:52:39;;;;;;;2.22;1.70;;;19.60;55.70;;;;;;5063945;28;20505;-64
2023/01/01 12:55:22;;;;;;;2.72;1.95;;;19.60;55.80;;;;;;5062201;28;20312;-65
2023/01/01 12:57:56;;;;;;;1.88;1.67;;;19.60;55.90;;;;;;5059421;28;20253;-65
2023/01/01 13:00:21;;;;;;;3.58;2.00;;;19.60;55.90;;;;;;5060447;28;20183;-65